createdAt,value
2023-02-25T00:00:36.749Z,18.63
2023-02-25T00:03:04.243Z,17.85
2023-02-25T00:05:32.227Z,20.70
2023-02-25T00:07:59.717Z,15.82
2023-02-25T00:10:28.607Z,14.68
2023-02-25T00:12:58.961Z,18.80
2023-02-25T00:15:33.278Z,21.05
2023-02-25T00:18:00.710Z,17.30
2023-02-25T00:20:28.324Z,18.55
2023-02-25T00:22:55.740Z,15.68
2023-02-25T00:25:23.198Z,21.65
2023-02-25T00:27:51.993Z,21.17
2023-02-25T00:30:19.421Z,21.80
2023-02-25T00:32:46.888Z,18.95
2023-02-25T00:35:14.329Z,16.23
2023-02-25T00:37:41.854Z,19.15
2023-02-25T00:40:14.670Z,19.25
2023-02-25T00:42:42.686Z,22.02
2023-02-25T00:45:12.769Z,13.70
2023-02-25T00:47:40.226Z,22.40
2023-02-25T00:50:09.865Z,15.93
2023-02-25T00:52:38.506Z,17.48
2023-02-25T00:55:06.975Z,10.73
2023-02-25T00:57:34.432Z,18.08
2023-02-25T01:00:01.955Z,17.35
2023-02-25T01:02:31.168Z,12.43
2023-02-25T01:04:58.676Z,10.82
2023-02-25T01:07:26.251Z,14.85
2023-02-25T01:09:56.028Z,21.63
2023-02-25T01:12:23.612Z,17.73
2023-02-25T01:14:51.206Z,18.77
2023-02-25T01:17:18.895Z,16.27
2023-02-25T01:19:47.676Z,13.20
2023-02-25T01:22:15.126Z,14.18
2023-02-25T01:24:42.600Z,16.70
2023-02-25T01:27:10.031Z,19.77
2023-02-25T01:29:40.306Z,15.18
2023-02-25T01:32:09.278Z,13.93
2023-02-25T01:34:37.231Z,8.25
2023-02-25T01:37:06.057Z,11.32
2023-02-25T01:39:34.199Z,10.25
2023-02-25T01:42:05.343Z,15.48
2023-02-25T01:44:34.271Z,13.13
2023-02-25T01:47:02.301Z,15.70
2023-02-25T01:49:32.950Z,13.13
2023-02-25T01:52:08.186Z,12.07
2023-02-25T01:54:36.848Z,10.63
2023-02-25T01:57:07.431Z,16.67
2023-02-25T01:59:35.393Z,18.92
2023-02-25T02:02:02.971Z,20.48
2023-02-25T02:04:31.838Z,17.85
2023-02-25T02:06:59.587Z,14.77
2023-02-25T02:09:30.023Z,14.43
2023-02-25T02:11:57.624Z,12.68
2023-02-25T02:14:27.089Z,12.00
2023-02-25T02:17:05.827Z,9.82
2023-02-25T02:19:42.943Z,13.57
2023-02-25T02:22:13.721Z,12.98
2023-02-25T02:25:09.072Z,8.18
2023-02-25T02:28:15.152Z,11.80
2023-02-25T02:30:54.445Z,11.05
2023-02-25T02:33:27.390Z,8.60
2023-02-25T02:35:59.108Z,7.45
2023-02-25T02:38:32.305Z,15.20
2023-02-25T02:41:07.265Z,8.43
2023-02-25T02:43:41.464Z,7.63
2023-02-25T02:46:15.586Z,11.10
2023-02-25T02:48:48.493Z,6.07
2023-02-25T02:51:18.615Z,5.68
2023-02-25T02:53:49.212Z,9.18
2023-02-25T02:56:18.840Z,10.63
2023-02-25T02:58:48.794Z,4.15
2023-02-25T03:01:18.608Z,5.60
2023-02-25T03:03:48.918Z,4.22
2023-02-25T03:06:19.534Z,8.63
2023-02-25T03:08:49.384Z,6.65
2023-02-25T03:11:17.437Z,4.43
2023-02-25T03:13:45.238Z,5.68
2023-02-25T03:16:18.083Z,7.15
2023-02-25T03:18:50.622Z,4.03
2023-02-25T03:21:21.054Z,3.35
2023-02-25T03:23:49.263Z,3.88
2023-02-25T03:26:23.497Z,6.03
2023-02-25T03:28:51.230Z,3.90
2023-02-25T03:31:22.446Z,3.53
2023-02-25T03:33:53.654Z,2.67
2023-02-25T03:36:25.465Z,3.78
2023-02-25T03:38:56.556Z,3.03
2023-02-25T03:41:27.423Z,2.33
2023-02-25T03:43:56.757Z,2.53
2023-02-25T03:46:25.278Z,2.13
2023-02-25T03:48:55.192Z,4.43
2023-02-25T03:51:25.949Z,2.28
2023-02-25T03:53:53.467Z,3.88
2023-02-25T03:56:21.141Z,4.55
2023-02-25T03:58:48.848Z,2.75
2023-02-25T04:01:18.081Z,3.35
2023-02-25T04:03:45.580Z,1.75
2023-02-25T04:06:15.065Z,2.28
2023-02-25T04:08:42.818Z,3.17
2023-02-25T04:11:10.265Z,2.50
2023-02-25T04:13:37.708Z,3.92
2023-02-25T04:16:05.767Z,2.85
2023-02-25T04:18:33.241Z,2.55
2023-02-25T04:21:00.867Z,2.65
2023-02-25T04:23:29.637Z,1.85
2023-02-25T04:25:57.071Z,4.80
2023-02-25T04:28:24.551Z,2.17
2023-02-25T04:30:52.093Z,1.77
2023-02-25T04:33:28.480Z,1.58
2023-02-25T04:35:55.933Z,1.75
2023-02-25T04:38:23.364Z,4.20
2023-02-25T04:40:53.358Z,3.70
2023-02-25T04:43:20.792Z,3.40
2023-02-25T04:45:48.284Z,4.20
2023-02-25T04:48:15.746Z,3.65
2023-02-25T04:50:43.173Z,3.55
2023-02-25T04:53:10.670Z,3.88
2023-02-25T04:55:38.095Z,3.28
2023-02-25T04:58:06.901Z,3.83
2023-02-25T05:00:34.319Z,1.83
2023-02-25T05:03:01.748Z,3.35
2023-02-25T05:05:29.427Z,4.68
2023-02-25T05:07:56.852Z,2.50
2023-02-25T05:10:24.340Z,3.60
2023-02-25T05:12:51.762Z,4.35
2023-02-25T05:15:20.823Z,3.60
2023-02-25T05:17:48.884Z,4.53
2023-02-25T05:20:16.506Z,5.72
2023-02-25T05:22:53.121Z,2.78
2023-02-25T05:25:20.557Z,4.30
2023-02-25T05:27:48.249Z,2.25
2023-02-25T05:30:16.188Z,3.80
2023-02-25T05:32:45.054Z,5.40
2023-02-25T05:35:12.619Z,4.82
2023-02-25T05:37:40.201Z,4.13
2023-02-25T05:40:09.509Z,5.25
2023-02-25T05:42:37.778Z,5.90
2023-02-25T05:45:05.690Z,3.97
2023-02-25T05:47:33.120Z,4.22
2023-02-25T05:50:01.956Z,6.45
2023-02-25T05:52:29.358Z,6.55
2023-02-25T05:54:56.839Z,4.05
2023-02-25T05:57:25.629Z,7.05
2023-02-25T05:59:53.077Z,6.40
2023-02-25T06:02:20.588Z,4.63
2023-02-25T06:04:48.408Z,6.65
2023-02-25T06:07:17.281Z,6.90
2023-02-25T06:09:45.689Z,5.80
2023-02-25T06:12:13.428Z,3.88
2023-02-25T06:14:40.889Z,5.75
2023-02-25T06:17:08.389Z,4.65
2023-02-25T06:19:35.933Z,4.00
2023-02-25T06:22:03.377Z,4.10
2023-02-25T06:24:32.569Z,5.00
2023-02-25T06:26:59.998Z,8.13
2023-02-25T06:29:27.637Z,4.55
2023-02-25T06:31:55.834Z,5.28
2023-02-25T06:34:23.330Z,6.38
2023-02-25T06:36:50.753Z,6.68
2023-02-25T06:39:18.247Z,5.57
2023-02-25T06:41:46.998Z,8.82
2023-02-25T06:44:15.866Z,6.57
2023-02-25T06:46:43.407Z,4.93
2023-02-25T06:49:11.392Z,6.40
2023-02-25T06:51:38.879Z,8.05
2023-02-25T06:54:06.485Z,8.65
2023-02-25T06:56:33.935Z,4.65
2023-02-25T06:59:02.711Z,7.18
2023-02-25T07:01:30.875Z,5.95
2023-02-25T07:03:58.341Z,13.38
2023-02-25T07:06:25.818Z,6.30
2023-02-25T07:08:53.282Z,8.93
2023-02-25T07:11:29.327Z,8.82
2023-02-25T07:13:57.202Z,8.90
2023-02-25T07:16:26.312Z,8.60
2023-02-25T07:18:54.372Z,7.07
2023-02-25T07:21:22.939Z,7.00
2023-02-25T07:23:50.566Z,13.43
2023-02-25T07:26:18.245Z,6.57
2023-02-25T07:28:45.708Z,10.23
2023-02-25T07:31:16.082Z,7.97
2023-02-25T07:33:54.952Z,7.70
2023-02-25T07:36:23.096Z,7.38
2023-02-25T07:38:50.698Z,7.38
2023-02-25T07:41:22.001Z,9.68
2023-02-25T07:43:49.715Z,5.75
2023-02-25T07:46:17.292Z,11.82
2023-02-25T07:48:46.177Z,5.88
2023-02-25T07:51:16.045Z,6.45
2023-02-25T07:53:43.799Z,7.15
2023-02-25T07:56:11.871Z,6.38
2023-02-25T07:58:39.816Z,6.05
2023-02-25T08:01:09.102Z,7.07
2023-02-25T08:03:36.679Z,4.40
2023-02-25T08:06:08.322Z,4.45
2023-02-25T08:08:36.088Z,3.90
2023-02-25T08:11:14.707Z,5.40
2023-02-25T08:13:42.652Z,4.20
2023-02-25T08:16:11.956Z,5.43
2023-02-25T08:18:42.709Z,3.75
2023-02-25T08:21:12.517Z,4.80
2023-02-25T08:23:40.591Z,3.95
2023-02-25T08:26:09.744Z,4.10
2023-02-25T08:28:37.835Z,5.60
2023-02-25T08:31:07.950Z,4.95
2023-02-25T08:33:35.617Z,3.53
2023-02-25T08:36:12.294Z,2.33
2023-02-25T08:38:39.797Z,2.85
2023-02-25T08:41:08.592Z,5.30
2023-02-25T08:43:37.191Z,2.95
2023-02-25T08:46:06.363Z,3.53
2023-02-25T08:48:34.260Z,5.70
2023-02-25T08:51:03.784Z,3.13
2023-02-25T08:53:32.625Z,3.90
2023-02-25T08:56:03.190Z,3.88
2023-02-25T08:58:30.687Z,3.60
2023-02-25T09:00:58.402Z,5.38
2023-02-25T09:03:26.004Z,6.13
2023-02-25T09:05:53.808Z,3.70
2023-02-25T09:08:21.330Z,7.35
2023-02-25T09:10:51.119Z,5.53
2023-02-25T09:13:22.191Z,3.25
2023-02-25T09:15:57.326Z,3.22
2023-02-25T09:18:24.817Z,5.03
2023-02-25T09:20:53.861Z,2.08
2023-02-25T09:23:21.543Z,5.00
2023-02-25T09:25:50.371Z,2.67
2023-02-25T09:28:17.940Z,3.40
2023-02-25T09:30:46.141Z,2.55
2023-02-25T09:33:13.905Z,5.15
2023-02-25T09:35:42.291Z,5.22
2023-02-25T09:38:09.703Z,3.85
2023-02-25T09:40:37.235Z,4.80
2023-02-25T09:43:11.922Z,3.25
2023-02-25T09:45:39.688Z,4.32
2023-02-25T09:48:13.911Z,4.53
2023-02-25T09:50:43.984Z,3.72
2023-02-25T09:53:15.646Z,5.65
2023-02-25T09:55:45.721Z,3.80
2023-02-25T09:58:22.580Z,2.88
2023-02-25T10:00:57.047Z,4.38
2023-02-25T10:03:27.978Z,3.58
2023-02-25T10:05:58.551Z,3.03
2023-02-25T10:08:31.674Z,3.20
2023-02-25T10:11:04.028Z,3.35
2023-02-25T10:13:40.669Z,3.88
2023-02-25T10:16:22.080Z,4.18
2023-02-25T10:18:55.472Z,3.92
2023-02-25T10:21:36.269Z,8.25
2023-02-25T10:24:15.202Z,5.00
2023-02-25T10:26:44.219Z,3.00
2023-02-25T10:29:18.251Z,2.65
2023-02-25T10:31:46.642Z,2.10
2023-02-25T10:34:21.614Z,2.38
2023-02-25T10:36:53.841Z,3.55
2023-02-25T10:39:21.376Z,2.20
2023-02-25T10:41:49.324Z,2.85
2023-02-25T10:44:18.590Z,4.15
2023-02-25T10:46:51.255Z,4.35
2023-02-25T10:49:21.741Z,3.42
2023-02-25T10:51:58.848Z,4.18
2023-02-25T10:54:26.289Z,2.15
2023-02-25T10:56:54.494Z,2.20
2023-02-25T10:59:31.116Z,4.30
2023-02-25T11:02:00.162Z,3.08
2023-02-25T11:04:31.659Z,1.40
2023-02-25T11:06:59.253Z,1.92
2023-02-25T11:09:35.321Z,1.02
2023-02-25T11:12:11.532Z,2.85
2023-02-25T11:14:40.563Z,2.45
2023-02-25T11:17:14.098Z,1.95
2023-02-25T11:19:43.573Z,1.60
2023-02-25T11:22:17.031Z,1.38
2023-02-25T11:24:47.022Z,1.02
2023-02-25T11:27:26.765Z,1.10
2023-02-25T11:30:01.774Z,1.33
2023-02-25T11:32:29.746Z,1.05
2023-02-25T11:35:01.377Z,1.42
2023-02-25T11:37:37.048Z,0.73
2023-02-25T11:40:22.032Z,0.40
2023-02-25T11:43:02.758Z,1.88
2023-02-25T11:45:33.843Z,1.33
2023-02-25T11:48:01.975Z,1.23
2023-02-25T11:50:33.954Z,0.90
2023-02-25T11:53:06.075Z,2.63
2023-02-25T11:55:44.613Z,0.80
2023-02-25T11:58:22.964Z,1.05
2023-02-25T12:00:59.388Z,1.63
2023-02-25T12:03:48.594Z,1.75
2023-02-25T12:06:32.081Z,4.22
2023-02-25T12:09:26.050Z,1.45
2023-02-25T12:12:17.552Z,1.55
2023-02-25T12:15:11.876Z,0.90
2023-02-25T12:17:51.542Z,0.93
2023-02-25T12:20:51.789Z,3.17
2023-02-25T12:23:46.385Z,2.15
2023-02-25T12:26:16.274Z,1.67
2023-02-25T12:28:59.113Z,1.55
2023-02-25T12:31:49.567Z,2.55
2023-02-25T12:34:30.333Z,2.60
2023-02-25T12:37:11.118Z,3.83
2023-02-25T12:39:54.508Z,1.45
2023-02-25T12:42:33.462Z,1.67
2023-02-25T12:45:29.791Z,1.40
2023-02-25T12:48:06.351Z,3.63
2023-02-25T12:50:52.432Z,2.35
2023-02-25T12:53:31.076Z,1.55
2023-02-25T12:56:26.194Z,2.65
2023-02-25T12:59:10.675Z,2.00
2023-02-25T13:02:19.325Z,1.70
2023-02-25T13:05:00.555Z,3.85
2023-02-25T13:08:01.008Z,3.10
2023-02-25T13:10:48.032Z,2.25
2023-02-25T13:13:47.476Z,4.00
2023-02-25T13:16:26.182Z,3.72
2023-02-25T13:19:05.155Z,2.20
2023-02-25T13:21:53.410Z,1.77
2023-02-25T13:24:33.057Z,1.20
2023-02-25T13:27:13.133Z,1.73
2023-02-25T13:29:54.297Z,1.20
2023-02-25T13:32:27.576Z,1.67
2023-02-25T13:35:08.011Z,2.17
2023-02-25T13:37:42.490Z,3.03
2023-02-25T13:40:21.982Z,4.47
2023-02-25T13:43:01.726Z,2.83
2023-02-25T13:46:14.026Z,1.75
2023-02-25T13:51:54.766Z,2.83
2023-02-25T13:54:35.331Z,4.55
2023-02-25T13:57:12.907Z,2.25
2023-02-25T14:00:09.397Z,1.95
2023-02-25T14:02:47.983Z,3.53
2023-02-25T14:05:27.275Z,3.30
2023-02-25T14:08:27.918Z,1.20
2023-02-25T14:11:01.772Z,3.50
2023-02-25T14:14:10.981Z,4.35
2023-02-25T14:16:53.012Z,1.15
2023-02-25T14:19:32.356Z,2.00
2023-02-25T14:22:20.172Z,3.60
2023-02-25T14:24:51.918Z,1.60
2023-02-25T14:27:26.236Z,6.05
2023-02-25T14:30:11.030Z,2.97
2023-02-25T14:32:53.025Z,4.78
2023-02-25T14:35:33.974Z,3.17
2023-02-25T14:38:07.490Z,6.05
2023-02-25T14:40:41.223Z,2.55
2023-02-25T14:43:20.718Z,10.18
2023-02-25T14:45:52.853Z,3.38
2023-02-25T14:48:25.562Z,5.43
2023-02-25T14:50:55.513Z,2.55
2023-02-25T14:53:47.619Z,3.65
2023-02-25T14:59:18.470Z,3.60
2023-02-25T15:02:15.167Z,2.40
2023-02-25T15:05:08.350Z,4.95
2023-02-25T15:07:55.831Z,3.40
2023-02-25T15:10:52.122Z,2.85
2023-02-25T15:13:39.700Z,3.45
2023-02-25T15:16:30.842Z,3.90
2023-02-25T15:19:24.980Z,5.33
2023-02-25T15:22:16.618Z,5.10
2023-02-25T15:24:44.819Z,2.63
2023-02-25T15:27:42.656Z,1.50
2023-02-25T15:30:12.147Z,1.30
2023-02-25T15:33:08.300Z,2.42
2023-02-25T15:35:58.855Z,2.22
2023-02-25T15:38:46.321Z,2.60
2023-02-25T15:41:42.500Z,2.00
2023-02-25T15:44:38.168Z,3.92
2023-02-25T15:47:20.130Z,4.25
2023-02-25T15:52:54.190Z,2.08
2023-02-25T15:55:33.186Z,2.63
2023-02-25T15:58:00.820Z,1.50
2023-02-25T16:00:53.459Z,3.00
2023-02-25T16:03:39.620Z,3.95
2023-02-25T16:06:12.677Z,1.83
2023-02-25T16:08:45.315Z,4.07
2023-02-25T16:11:21.790Z,4.45
2023-02-25T16:13:49.626Z,3.97
2023-02-25T16:16:18.239Z,3.65
2023-02-25T16:18:49.217Z,3.50
2023-02-25T16:21:22.792Z,2.55
2023-02-25T16:23:52.115Z,2.78
2023-02-25T16:26:35.486Z,2.28
2023-02-25T16:29:10.795Z,3.50
2023-02-25T16:31:43.106Z,1.50
2023-02-25T16:34:13.760Z,2.55
2023-02-25T16:36:47.413Z,2.65
2023-02-25T16:39:18.966Z,2.47
2023-02-25T16:41:46.510Z,3.83
2023-02-25T16:44:19.145Z,1.83
2023-02-25T16:46:50.385Z,2.75
2023-02-25T16:49:21.444Z,2.97
2023-02-25T16:51:49.002Z,1.70
2023-02-25T16:54:19.911Z,3.30
2023-02-25T16:56:49.020Z,4.60
2023-02-25T16:59:21.768Z,3.03
2023-02-25T17:01:54.951Z,3.47
2023-02-25T17:04:25.232Z,1.88
2023-02-25T17:07:17.989Z,4.95
2023-02-25T17:09:49.104Z,3.03
2023-02-25T17:12:20.130Z,2.95
2023-02-25T17:14:49.915Z,4.70
2023-02-25T17:17:19.529Z,2.42
2023-02-25T17:19:47.436Z,3.30
2023-02-25T17:22:20.925Z,5.45
2023-02-25T17:24:50.214Z,3.00
2023-02-25T17:27:17.969Z,2.10
2023-02-25T17:29:45.396Z,3.75
2023-02-25T17:32:19.869Z,5.38
2023-02-25T17:34:49.089Z,4.93
2023-02-25T17:37:17.195Z,2.72
2023-02-25T17:39:45.350Z,2.17
2023-02-25T17:42:36.334Z,3.67
2023-02-25T17:45:08.522Z,2.85
2023-02-25T17:47:38.176Z,3.97
2023-02-25T17:50:18.230Z,3.72
2023-02-25T17:52:49.113Z,5.40
2023-02-25T17:55:23.340Z,3.20
2023-02-25T17:57:53.670Z,2.10
2023-02-25T18:00:24.258Z,3.35
2023-02-25T18:03:12.705Z,2.55
2023-02-25T18:05:50.304Z,3.63
2023-02-25T18:08:19.635Z,4.32
2023-02-25T18:10:55.164Z,3.90
2023-02-25T18:13:28.874Z,5.80
2023-02-25T18:16:17.688Z,4.38
2023-02-25T18:18:45.116Z,3.72
2023-02-25T18:21:12.985Z,3.10
2023-02-25T18:23:41.435Z,4.80
2023-02-25T18:26:15.777Z,3.83
2023-02-25T18:28:45.829Z,5.55
2023-02-25T18:31:14.647Z,4.50
2023-02-25T18:33:42.701Z,4.47
2023-02-25T18:36:11.171Z,3.45
2023-02-25T18:38:38.636Z,8.35
2023-02-25T18:41:07.124Z,7.55
2023-02-25T18:43:40.109Z,4.07
2023-02-25T18:46:09.086Z,4.22
2023-02-25T18:48:36.785Z,3.88
2023-02-25T18:51:05.976Z,7.22
2023-02-25T18:53:33.764Z,5.82
2023-02-25T18:56:01.313Z,4.53
2023-02-25T18:58:28.754Z,4.90
2023-02-25T19:00:58.267Z,4.25
2023-02-25T19:03:30.385Z,5.90
2023-02-25T19:05:58.228Z,3.05
2023-02-25T19:08:25.777Z,5.28
2023-02-25T19:10:54.599Z,6.13
2023-02-25T19:13:27.396Z,6.28
2023-02-25T19:15:55.074Z,7.20
2023-02-25T19:18:22.782Z,4.65
2023-02-25T19:20:51.746Z,8.68
2023-02-25T19:23:19.862Z,4.85
2023-02-25T19:25:50.465Z,3.88
2023-02-25T19:28:18.036Z,6.32
2023-02-25T19:30:45.816Z,6.72
2023-02-25T19:33:22.426Z,5.30
2023-02-25T19:35:51.260Z,3.70
2023-02-25T19:38:20.725Z,3.47
2023-02-25T19:40:49.055Z,4.68
2023-02-25T19:43:17.867Z,6.88
2023-02-25T19:45:45.646Z,6.80
2023-02-25T19:48:13.550Z,4.80
2023-02-25T19:50:41.665Z,8.43
2023-02-25T19:53:10.773Z,4.55
2023-02-25T19:55:38.975Z,5.97
2023-02-25T19:58:06.621Z,9.00
2023-02-25T20:00:34.278Z,6.97
2023-02-25T20:03:01.740Z,3.92
2023-02-25T20:05:29.363Z,5.65
2023-02-25T20:07:56.857Z,7.30
2023-02-25T20:10:25.667Z,5.47
2023-02-25T20:12:53.174Z,4.50
2023-02-25T20:15:20.725Z,6.80
2023-02-25T20:17:49.175Z,3.10
2023-02-25T20:20:17.524Z,6.35
2023-02-25T20:22:44.987Z,5.30
2023-02-25T20:25:15.226Z,3.83
2023-02-25T20:27:44.186Z,3.35
2023-02-25T20:30:14.590Z,3.28
2023-02-25T20:32:43.165Z,5.13
2023-02-25T20:35:16.399Z,4.35
2023-02-25T20:37:48.930Z,3.35
2023-02-25T20:40:16.664Z,2.63
2023-02-25T20:42:45.696Z,3.95
2023-02-25T20:45:16.338Z,4.63
2023-02-25T20:47:44.090Z,2.65
2023-02-25T20:50:16.245Z,4.13
2023-02-25T20:52:43.877Z,5.65
2023-02-25T20:55:11.901Z,5.10
2023-02-25T20:57:39.334Z,5.25
2023-02-25T21:00:10.017Z,5.25
2023-02-25T21:02:37.494Z,4.80
2023-02-25T21:05:05.442Z,5.22
2023-02-25T21:07:33.004Z,4.32
2023-02-25T21:10:00.419Z,5.93
2023-02-25T21:12:28.023Z,3.70
2023-02-25T21:14:55.462Z,3.35
2023-02-25T21:17:24.319Z,3.28
2023-02-25T21:19:51.797Z,5.85
2023-02-25T21:22:19.290Z,4.03
2023-02-25T21:24:46.825Z,6.05
2023-02-25T21:27:14.381Z,4.63
2023-02-25T21:29:41.992Z,5.22
2023-02-25T21:32:09.477Z,5.30
2023-02-25T21:34:38.321Z,5.72
2023-02-25T21:37:05.737Z,6.57
2023-02-25T21:39:33.367Z,5.85
2023-02-25T21:42:00.962Z,4.15
2023-02-25T21:44:28.685Z,4.65
2023-02-25T21:46:58.145Z,12.15
2023-02-25T21:49:27.063Z,6.03
2023-02-25T21:51:55.921Z,4.60
2023-02-25T21:54:23.505Z,3.90
2023-02-25T21:56:50.964Z,6.65
2023-02-25T21:59:18.679Z,4.22
2023-02-25T22:01:46.292Z,3.53
2023-02-25T22:04:13.902Z,7.10
2023-02-25T22:06:42.934Z,6.18
2023-02-25T22:09:12.611Z,5.90
2023-02-25T22:11:40.458Z,8.60
2023-02-25T22:14:09.137Z,4.90
2023-02-25T22:16:38.312Z,3.53
2023-02-25T22:19:06.069Z,2.55
2023-02-25T22:21:35.499Z,4.32
2023-02-25T22:24:04.602Z,6.40
2023-02-25T22:26:34.889Z,4.50
2023-02-25T22:29:04.684Z,5.50
2023-02-25T22:31:34.124Z,4.97
2023-02-25T22:34:02.396Z,4.88
2023-02-25T22:36:29.969Z,6.40
2023-02-25T22:38:57.609Z,4.70
2023-02-25T22:41:27.848Z,3.28
2023-02-25T22:43:58.450Z,2.35
2023-02-25T22:46:27.946Z,4.38
2023-02-25T22:48:56.065Z,3.65
2023-02-25T22:51:25.566Z,3.20
2023-02-25T22:53:54.198Z,3.28
2023-02-25T22:56:22.093Z,4.78
2023-02-25T22:58:49.929Z,5.65
2023-02-25T23:01:21.386Z,2.83
2023-02-25T23:03:49.478Z,6.43
2023-02-25T23:06:18.336Z,4.18
2023-02-25T23:08:46.202Z,6.38
2023-02-25T23:11:15.516Z,5.72
2023-02-25T23:13:47.407Z,6.28
2023-02-25T23:16:16.149Z,6.43
2023-02-25T23:18:45.537Z,5.68
2023-02-25T23:21:18.782Z,3.42
2023-02-25T23:23:47.460Z,9.82
2023-02-25T23:26:17.377Z,4.03
2023-02-25T23:28:45.215Z,6.25
2023-02-25T23:31:19.215Z,6.13
2023-02-25T23:33:48.341Z,6.35
2023-02-25T23:36:16.177Z,4.65
2023-02-25T23:38:44.022Z,5.47
2023-02-25T23:41:11.487Z,4.60
2023-02-25T23:43:38.943Z,3.75
2023-02-25T23:46:07.437Z,4.53
2023-02-25T23:48:35.005Z,5.07
2023-02-25T23:51:06.830Z,3.38
2023-02-25T23:53:34.655Z,6.57
2023-02-25T23:56:05.360Z,7.82
2023-02-25T23:58:32.818Z,4.03
